Time;durP1;ratioP1;P1;durP2;ratioP2;P2;SDS_P1;SDS_P2;PMS_P1;PMS_P2;Temp;Humidity;BMP_temperature;BMP_pressure;BME280_temperature;BME280_humidity;BME280_pressure;Samples;Min_cycle;Max_cycle;Signal;HPM_P1;HPM_P2
2023/06/19 00:01:09;;;;;;;4.90;4.22;;;23.40;59.10;;;;;;5001786;28;20712;-63
2023/06/19 00:03:37;;;;;;;7.05;4.75;;;23.40;61.20;;;;;;5008723;28;20239;-63
2023/06/19 00:06:05;;;;;;;9.23;5.78;;;23.40;60.40;;;;;;5007867;28;20227;-63
2023/06/19 00:08:33;;;;;;;6.22;4.75;;;23.30;62.10;;;;;;5001169;28;20185;-63
2023/06/19 00:11:00;;;;;;;5.70;4.43;;;23.20;61.40;;;;;;5003012;28;20210;-64
2023/06/19 00:13:27;;;;;;;5.43;4.10;;;23.10;61.00;;;;;;5003771;28;20213;-64
2023/06/19 00:15:55;;;;;;;6.32;4.40;;;23.10;63.90;;;;;;5002242;28;20193;-63
2023/06/19 00:18:22;;;;;;;4.40;3.70;;;23.10;62.50;;;;;;5006955;28;20611;-63
2023/06/19 00:20:49;;;;;;;7.43;4.82;;;23.00;63.70;;;;;;5023376;28;20673;-64
2023/06/19 00:23:16;;;;;;;5.15;4.00;;;23.00;63.50;;;;;;5022636;28;20260;-66
2023/06/19 00:25:44;;;;;;;4.15;3.75;;;23.00;64.00;;;;;;5004521;28;20197;-66
2023/06/19 00:28:14;;;;;;;7.18;4.03;;;23.00;63.90;;;;;;5002549;28;20655;-65
2023/06/19 00:30:41;;;;;;;5.43;4.60;;;23.00;64.00;;;;;;5004891;28;20559;-66
2023/06/19 00:33:09;;;;;;;5.88;4.00;;;23.00;90.10;;;;;;5019005;28;20233;-65
2023/06/19 00:35:36;;;;;;;4.03;3.63;;;22.90;64.80;;;;;;5008763;28;20794;-68
2023/06/19 00:38:05;;;;;;;6.55;4.35;;;22.80;66.10;;;;;;5007231;28;20629;-66
2023/06/19 00:40:33;;;;;;;5.60;3.70;;;22.70;67.30;;;;;;5015804;28;20214;-66
2023/06/19 00:43:01;;;;;;;5.82;4.00;;;22.70;68.70;;;;;;5006923;28;20201;-67
2023/06/19 00:45:29;;;;;;;4.25;3.85;;;22.60;70.10;;;;;;5005783;28;20197;-66
2023/06/19 00:47:57;;;;;;;4.47;3.58;;;22.60;69.90;;;;;;5015838;28;20193;-66
2023/06/19 00:50:25;;;;;;;4.60;3.78;;;22.60;70.40;;;;;;5004364;28;20658;-68
2023/06/19 00:52:53;;;;;;;4.28;3.80;;;22.50;72.10;;;;;;5016733;28;20197;-66
2023/06/19 00:55:21;;;;;;;4.43;3.83;;;22.50;73.30;;;;;;5021778;28;20201;-65
2023/06/19 00:57:52;;;;;;;5.03;3.58;;;22.40;72.80;;;;;;5006047;28;20239;-66
2023/06/19 01:00:19;;;;;;;4.10;3.63;;;22.40;76.40;;;;;;4999849;28;20205;-67
2023/06/19 01:02:49;;;;;;;3.75;3.35;;;22.30;79.50;;;;;;4987863;23;20298;-60
2023/06/19 01:05:17;;;;;;;4.18;3.33;;;22.30;76.30;;;;;;4982511;28;20272;-61
2023/06/19 01:07:59;;;;;;;4.35;3.78;;;22.30;76.60;;;;;;4986438;28;20559;-61
2023/06/19 01:10:49;;;;;;;6.57;3.80;;;22.20;76.60;;;;;;4988694;28;20197;-62
2023/06/19 01:13:27;;;;;;;5.93;3.63;;;22.10;78.80;;;;;;4985038;28;20209;-60
2023/06/19 01:15:55;;;;;;;4.85;3.65;;;22.10;79.40;;;;;;4981951;28;20198;-61
2023/06/19 01:18:25;;;;;;;3.70;3.40;;;22.10;79.10;;;;;;4975682;28;20668;-62
2023/06/19 01:20:52;;;;;;;5.88;3.70;;;22.00;80.10;;;;;;4978360;28;20213;-60
2023/06/19 01:23:19;;;;;;;4.63;3.47;;;22.10;81.60;;;;;;4997766;28;20197;-61
2023/06/19 01:25:46;;;;;;;4.20;3.80;;;22.10;81.70;;;;;;4995584;28;20708;-61
2023/06/19 01:28:14;;;;;;;6.60;4.15;;;22.10;80.40;;;;;;4986638;28;20198;-61
2023/06/19 01:30:42;;;;;;;6.13;3.88;;;22.00;82.70;;;;;;4987964;28;20226;-61
2023/06/19 01:33:18;;;;;;;4.72;3.78;;;22.00;81.70;;;;;;4984593;28;20198;-60
2023/06/19 01:35:47;;;;;;;6.07;4.05;;;22.10;82.90;;;;;;4983876;28;20350;-61
2023/06/19 01:38:16;;;;;;;4.78;4.07;;;22.00;82.70;;;;;;4977285;28;20759;-61
2023/06/19 01:40:43;;;;;;;5.40;3.83;;;22.00;84.60;;;;;;4986815;28;20208;-59
2023/06/19 01:43:11;;;;;;;4.45;3.50;;;22.00;82.70;;;;;;4977771;28;20185;-59
2023/06/19 01:45:38;;;;;;;4.43;4.03;;;22.10;84.50;;;;;;4982691;28;20201;-61
2023/06/19 01:48:05;;;;;;;4.85;3.70;;;22.00;84.70;;;;;;4979774;28;20197;-60
2023/06/19 01:50:32;;;;;;;4.55;3.83;;;22.00;83.90;;;;;;4987186;28;20525;-60
2023/06/19 01:52:59;;;;;;;5.00;4.00;;;22.00;85.20;;;;;;4999100;28;20250;-60
2023/06/19 01:55:26;;;;;;;5.50;3.92;;;22.10;85.60;;;;;;4986398;28;20606;-60
2023/06/19 01:57:53;;;;;;;4.72;3.47;;;22.10;84.90;;;;;;4981187;28;20201;-60
2023/06/19 02:00:20;;;;;;;8.20;4.50;;;22.20;85.80;;;;;;4986961;28;20213;-60
2023/06/19 02:02:48;;;;;;;5.30;4.07;;;22.20;84.80;;;;;;4984520;28;20229;-60
2023/06/19 02:05:16;;;;;;;4.50;3.83;;;22.30;87.00;;;;;;4985883;28;20746;-61
2023/06/19 02:07:43;;;;;;;5.47;3.92;;;22.30;86.40;;;;;;4979605;28;20201;-61
2023/06/19 02:10:11;;;;;;;4.65;3.67;;;22.40;86.70;;;;;;4986321;28;20296;-61
2023/06/19 02:12:38;;;;;;;6.25;4.03;;;22.20;85.00;;;;;;4982373;28;20211;-60
2023/06/19 02:15:05;;;;;;;4.43;3.78;;;22.30;87.10;;;;;;4979236;28;20292;-61
2023/06/19 02:17:33;;;;;;;4.68;4.10;;;22.20;86.30;;;;;;4980053;28;20317;-62
2023/06/19 02:20:00;;;;;;;9.00;3.47;;;22.10;87.80;;;;;;4970762;28;20230;-72
2023/06/19 02:22:27;;;;;;;5.65;3.83;;;22.10;88.10;;;;;;4984032;28;20237;-62
2023/06/19 02:24:54;;;;;;;4.30;3.80;;;22.10;88.40;;;;;;4979668;28;20197;-61
2023/06/19 02:27:21;;;;;;;6.90;3.70;;;22.10;88.30;;;;;;4982523;28;20741;-61
2023/06/19 02:29:48;;;;;;;4.78;4.05;;;22.00;89.20;;;;;;4986680;28;20249;-70
2023/06/19 02:32:15;;;;;;;5.45;3.83;;;22.00;89.10;;;;;;4984185;28;20202;-70
2023/06/19 02:34:42;;;;;;;4.13;3.30;;;22.00;89.80;;;;;;4983636;28;20221;-70
2023/06/19 02:37:09;;;;;;;5.10;4.05;;;21.90;90.00;;;;;;4986528;28;20197;-73
2023/06/19 02:39:36;;;;;;;4.35;3.53;;;21.90;91.10;;;;;;4981291;28;20575;-70
2023/06/19 02:42:04;;;;;;;5.45;4.38;;;21.80;90.60;;;;;;4985276;28;20205;-71
2023/06/19 02:44:31;;;;;;;6.15;4.28;;;21.80;90.60;;;;;;4979678;28;20208;-70
2023/06/19 02:46:58;;;;;;;5.50;3.58;;;21.80;90.30;;;;;;4987108;28;20189;-69
2023/06/19 02:49:25;;;;;;;4.55;3.55;;;21.80;99.90;;;;;;4987911;28;20194;-68
2023/06/19 02:51:52;;;;;;;4.70;3.92;;;21.80;91.20;;;;;;4983436;28;20248;-67
2023/06/19 02:54:20;;;;;;;5.90;4.40;;;21.80;91.30;;;;;;4982223;28;20216;-68
2023/06/19 02:56:47;;;;;;;4.72;4.00;;;21.90;92.30;;;;;;4986475;28;20240;-71
2023/06/19 02:59:17;;;;;;;4.13;3.28;;;21.90;91.40;;;;;;4984445;28;20218;-70
2023/06/19 03:01:44;;;;;;;5.15;4.05;;;21.90;91.70;;;;;;4988092;28;20308;-69
2023/06/19 03:04:13;;;;;;;5.85;4.43;;;21.80;92.00;;;;;;4990266;28;20209;-69
2023/06/19 03:06:40;;;;;;;7.78;3.63;;;21.70;91.60;;;;;;4989394;28;20198;-70
2023/06/19 03:09:13;;;;;;;4.70;3.85;;;21.70;91.80;;;;;;4988972;28;20560;-69
2023/06/19 03:11:42;;;;;;;5.80;4.03;;;21.70;92.40;;;;;;4989979;28;20200;-69
2023/06/19 03:14:09;;;;;;;5.68;3.97;;;21.70;92.40;;;;;;4987500;28;20228;-69
2023/06/19 03:16:36;;;;;;;5.03;4.20;;;21.80;91.90;;;;;;4990208;28;20209;-67
2023/06/19 03:19:04;;;;;;;5.15;3.80;;;21.80;92.10;;;;;;4990957;28;20197;-67
2023/06/19 03:21:32;;;;;;;5.25;4.10;;;21.90;91.90;;;;;;4983786;28;20263;-67
2023/06/19 03:23:59;;;;;;;5.70;4.55;;;22.10;92.50;;;;;;4989705;28;20225;-67
2023/06/19 03:26:27;;;;;;;5.63;4.43;;;22.00;92.10;;;;;;4973085;28;20249;-68
2023/06/19 03:28:59;;;;;;;5.35;4.55;;;22.00;92.30;;;;;;4987492;28;20202;-68
2023/06/19 03:31:31;;;;;;;5.55;4.32;;;22.10;92.20;;;;;;4983946;28;20201;-68
2023/06/19 03:33:58;;;;;;;7.75;4.20;;;22.10;99.90;;;;;;4989320;28;20225;-70
2023/06/19 03:36:25;;;;;;;5.28;4.15;;;22.00;91.90;;;;;;4988522;28;20717;-69
2023/06/19 03:38:55;;;;;;;4.80;3.97;;;22.00;92.80;;;;;;4990152;28;20198;-68
2023/06/19 03:41:26;;;;;;;6.05;4.32;;;21.70;93.00;;;;;;4972601;28;20297;-68
2023/06/19 03:43:54;;;;;;;8.65;4.80;;;21.50;93.20;;;;;;4987287;28;20289;-67
2023/06/19 03:46:22;;;;;;;6.00;4.90;;;21.40;94.10;;;;;;4969892;28;20199;-66
2023/06/19 03:48:50;;;;;;;8.50;4.43;;;21.30;94.50;;;;;;4989466;28;20268;-66
2023/06/19 03:51:17;;;;;;;6.53;4.35;;;21.30;95.20;;;;;;4984114;28;20193;-67
2023/06/19 03:53:44;;;;;;;5.60;4.35;;;21.40;95.10;;;;;;4991782;28;20198;-68
2023/06/19 03:56:11;;;;;;;5.55;4.35;;;21.60;95.80;;;;;;4986316;28;20195;-66
2023/06/19 03:58:38;;;;;;;6.15;4.43;;;21.70;95.30;;;;;;4988273;28;20292;-66
2023/06/19 04:01:05;;;;;;;4.68;3.88;;;21.80;94.60;;;;;;4984853;28;20213;-66
2023/06/19 04:03:32;;;;;;;5.35;3.95;;;21.90;95.10;;;;;;4986558;28;20364;-66
2023/06/19 04:06:01;;;;;;;4.97;3.90;;;21.90;94.80;;;;;;4981614;28;20185;-66
2023/06/19 04:08:28;;;;;;;9.82;3.70;;;22.10;93.50;;;;;;4988087;28;20193;-69
2023/06/19 04:10:55;;;;;;;4.80;4.03;;;22.20;93.10;;;;;;4988574;28;20225;-66
2023/06/19 04:13:22;;;;;;;3.53;3.03;;;22.40;92.80;;;;;;4989444;28;20202;-66
2023/06/19 04:15:50;;;;;;;7.15;3.90;;;22.50;92.80;;;;;;4988880;28;20320;-66
2023/06/19 04:18:18;;;;;;;5.57;3.95;;;22.60;92.10;;;;;;4989177;28;20206;-68
2023/06/19 04:20:44;;;;;;;6.68;3.50;;;22.90;91.90;;;;;;4984163;28;20217;-69
2023/06/19 04:23:12;;;;;;;5.40;3.53;;;22.90;90.90;;;;;;4985989;28;20616;-71
2023/06/19 04:25:39;;;;;;;5.03;3.40;;;22.90;91.30;;;;;;4989588;28;20193;-70
2023/06/19 04:28:06;;;;;;;6.78;4.90;;;23.10;91.30;;;;;;4980402;28;20245;-69
2023/06/19 04:30:33;;;;;;;4.63;3.70;;;23.40;91.20;;;;;;4990358;28;20202;-61
2023/06/19 04:33:04;;;;;;;4.68;3.60;;;23.60;90.10;;;;;;4988768;28;20190;-70
2023/06/19 04:35:31;;;;;;;3.35;2.83;;;23.70;90.40;;;;;;4984740;28;20205;-74
2023/06/19 04:38:01;;;;;;;4.60;3.40;;;24.00;90.30;;;;;;4987064;28;20209;-68
2023/06/19 04:40:28;;;;;;;4.05;3.20;;;24.50;90.40;;;;;;4989102;28;20644;-68
2023/06/19 04:42:55;;;;;;;5.70;3.03;;;24.40;89.00;;;;;;4987766;28;20200;-70
2023/06/19 04:45:22;;;;;;;3.50;3.17;;;24.50;90.10;;;;;;4979305;28;20701;-70
2023/06/19 04:47:49;;;;;;;4.47;3.22;;;24.80;90.10;;;;;;4986369;28;20186;-71
2023/06/19 04:50:21;;;;;;;4.75;3.80;;;25.10;88.30;;;;;;4988693;28;20200;-72
2023/06/19 04:52:50;;;;;;;4.75;3.17;;;25.20;89.30;;;;;;4986352;28;20201;-71
2023/06/19 04:55:18;;;;;;;2.75;2.20;;;25.50;87.00;;;;;;4983939;28;20226;-69
2023/06/19 04:57:45;;;;;;;3.47;2.97;;;25.10;86.80;;;;;;4989975;28;20653;-66
2023/06/19 05:00:14;;;;;;;5.40;3.38;;;25.10;87.90;;;;;;4989020;28;20209;-66
2023/06/19 05:02:43;;;;;;;3.17;2.38;;;25.00;87.50;;;;;;4979511;28;20238;-66
2023/06/19 05:05:11;;;;;;;4.00;2.70;;;25.00;87.00;;;;;;4985140;28;20217;-66
2023/06/19 05:07:38;;;;;;;3.00;2.30;;;25.20;86.30;;;;;;4984522;28;20200;-67
2023/06/19 05:10:06;;;;;;;2.58;2.17;;;25.50;84.80;;;;;;4985576;28;20599;-66
2023/06/19 05:12:34;;;;;;;4.55;3.20;;;25.10;86.20;;;;;;4988829;28;20273;-68
2023/06/19 05:15:05;;;;;;;3.88;2.90;;;25.50;87.60;;;;;;4987696;28;20561;-68
2023/06/19 05:17:32;;;;;;;3.40;2.42;;;25.50;88.80;;;;;;4988795;28;20193;-68
2023/06/19 05:19:59;;;;;;;3.88;2.15;;;25.60;86.10;;;;;;4983865;28;20197;-68
2023/06/19 05:22:27;;;;;;;3.35;2.00;;;25.60;87.10;;;;;;4981528;28;20190;-67
2023/06/19 05:24:54;;;;;;;3.00;2.45;;;25.60;86.00;;;;;;4985390;28;20208;-68
2023/06/19 05:27:21;;;;;;;3.65;2.70;;;25.40;99.90;;;;;;4986616;28;20198;-68
2023/06/19 05:29:48;;;;;;;4.20;2.58;;;25.70;87.50;;;;;;4988850;28;20276;-68
2023/06/19 05:32:15;;;;;;;2.53;2.00;;;25.80;87.30;;;;;;4986579;28;20744;-67
2023/06/19 05:34:42;;;;;;;2.22;1.80;;;26.30;86.20;;;;;;4981678;28;20712;-67
2023/06/19 05:37:09;;;;;;;4.95;2.53;;;26.40;84.60;;;;;;4999144;28;20198;-68
2023/06/19 05:39:36;;;;;;;3.72;1.88;;;26.70;85.50;;;;;;4985117;28;20202;-68
2023/06/19 05:42:03;;;;;;;2.80;2.40;;;27.40;83.80;;;;;;4988525;28;20205;-68
2023/06/19 05:44:30;;;;;;;6.03;2.35;;;27.40;83.50;;;;;;4986676;28;20177;-68
2023/06/19 05:46:57;;;;;;;4.75;2.38;;;27.10;83.40;;;;;;4985248;28;20193;-69
2023/06/19 05:49:24;;;;;;;2.97;2.42;;;27.70;83.80;;;;;;4988220;28;20197;-69
2023/06/19 05:51:51;;;;;;;3.50;2.22;;;27.30;81.30;;;;;;4987119;28;20645;-70
2023/06/19 05:54:18;;;;;;;2.70;2.08;;;27.60;82.30;;;;;;4982347;28;20194;-68
2023/06/19 05:56:46;;;;;;;4.53;2.13;;;28.30;79.70;;;;;;4986300;28;20193;-68
2023/06/19 05:59:14;;;;;;;2.72;1.88;;;28.30;81.60;;;;;;4986747;28;20212;-70
2023/06/19 06:01:41;;;;;;;2.40;2.15;;;28.60;81.40;;;;;;4986207;28;20301;-71
2023/06/19 06:04:09;;;;;;;2.90;2.60;;;29.30;78.70;;;;;;4987930;28;20228;-71
2023/06/19 06:06:36;;;;;;;2.80;2.00;;;29.60;79.70;;;;;;4982947;28;20249;-71
2023/06/19 06:09:03;;;;;;;7.28;2.05;;;30.20;76.90;;;;;;4983658;28;20197;-71
2023/06/19 06:11:30;;;;;;;2.47;1.88;;;29.10;77.60;;;;;;4978158;28;20622;-70
2023/06/19 06:13:57;;;;;;;3.50;2.10;;;28.70;75.60;;;;;;4980693;28;20677;-71
2023/06/19 06:16:24;;;;;;;3.35;1.98;;;28.60;77.00;;;;;;4984190;28;20670;-70
2023/06/19 06:18:51;;;;;;;2.55;1.90;;;29.10;77.60;;;;;;4979335;28;20198;-70
2023/06/19 06:21:18;;;;;;;2.72;1.73;;;29.50;77.90;;;;;;4984494;28;20224;-69
2023/06/19 06:23:47;;;;;;;2.22;1.85;;;29.20;75.20;;;;;;4983790;28;20201;-70
2023/06/19 06:26:14;;;;;;;2.45;1.55;;;29.60;75.40;;;;;;4987248;28;20819;-71
2023/06/19 06:28:41;;;;;;;1.55;1.45;;;30.30;72.00;;;;;;4969379;28;20203;-68
2023/06/19 06:31:08;;;;;;;2.38;2.10;;;28.80;71.80;;;;;;4982945;28;20557;-71
2023/06/19 06:33:35;;;;;;;2.97;2.10;;;28.90;75.10;;;;;;4985275;28;20673;-71
2023/06/19 06:36:02;;;;;;;2.42;1.92;;;29.00;74.80;;;;;;4988737;28;20193;-71
2023/06/19 06:38:31;;;;;;;2.25;1.65;;;29.70;74.80;;;;;;4973354;28;20672;-71
2023/06/19 06:40:59;;;;;;;1.65;1.48;;;29.70;73.70;;;;;;4984561;28;20218;-71
2023/06/19 06:43:26;;;;;;;4.45;1.58;;;30.00;71.90;;;;;;4990171;28;20194;-68
2023/06/19 06:45:53;;;;;;;7.18;1.65;;;30.20;73.30;;;;;;4991296;28;20198;-68
2023/06/19 06:48:20;;;;;;;3.20;2.00;;;32.30;73.60;;;;;;4991631;28;20190;-69
2023/06/19 06:50:47;;;;;;;6.35;1.90;;;32.30;67.70;;;;;;4991928;28;20197;-68
2023/06/19 06:53:14;;;;;;;1.65;1.45;;;33.10;69.30;;;;;;4984551;28;20242;-74
2023/06/19 06:55:41;;;;;;;2.30;1.67;;;32.40;64.90;;;;;;4982582;28;20201;-68
2023/06/19 06:58:08;;;;;;;3.13;1.55;;;32.90;66.30;;;;;;4989861;28;20202;-71
2023/06/19 07:00:35;;;;;;;2.10;1.80;;;32.90;65.60;;;;;;4989179;28;20197;-70
2023/06/19 07:03:02;;;;;;;4.95;1.70;;;32.70;64.00;;;;;;4989839;28;20238;-68
2023/06/19 07:05:30;;;;;;;1.95;1.30;;;33.10;65.60;;;;;;4989685;28;21068;-68
2023/06/19 07:07:57;;;;;;;2.45;1.38;;;32.70;59.70;;;;;;4985399;28;20870;-70
2023/06/19 07:10:24;;;;;;;2.45;1.52;;;30.80;61.60;;;;;;4989340;28;20225;-70
2023/06/19 07:12:51;;;;;;;2.15;1.25;;;30.40;63.50;;;;;;4987992;28;20263;-68
2023/06/19 07:15:21;;;;;;;6.43;1.75;;;31.10;62.90;;;;;;4987131;28;20202;-70
2023/06/19 07:17:48;;;;;;;3.05;1.58;;;30.60;62.90;;;;;;4990083;28;20263;-67
2023/06/19 07:20:15;;;;;;;3.20;1.60;;;29.30;62.80;;;;;;4987359;28;20201;-61
2023/06/19 07:22:43;;;;;;;1.60;1.48;;;28.50;62.90;;;;;;4988317;28;20214;-62
2023/06/19 07:25:11;;;;;;;1.83;1.40;;;28.20;65.90;;;;;;4988658;28;20186;-62
2023/06/19 07:27:40;;;;;;;3.30;1.60;;;27.60;66.10;;;;;;4986744;28;20708;-61
2023/06/19 07:30:08;;;;;;;2.88;1.52;;;27.30;69.00;;;;;;4989121;28;20225;-62
2023/06/19 07:32:35;;;;;;;4.55;3.83;;;28.60;72.20;;;;;;4987396;28;20257;-62
2023/06/19 07:35:02;;;;;;;2.45;1.65;;;30.80;70.50;;;;;;4990911;28;20198;-61
2023/06/19 07:37:29;;;;;;;6.28;4.63;;;31.30;65.80;;;;;;4986985;28;20252;-63
2023/06/19 07:39:56;;;;;;;1.58;1.20;;;32.00;66.00;;;;;;4990013;28;20218;-61
2023/06/19 07:42:23;;;;;;;2.50;1.83;;;30.70;63.70;;;;;;4980298;28;20217;-62
2023/06/19 07:44:50;;;;;;;2.30;2.00;;;32.40;67.50;;;;;;4984388;28;20190;-63
2023/06/19 07:47:18;;;;;;;1.90;1.63;;;31.70;63.90;;;;;;4974183;28;20193;-63
2023/06/19 07:49:45;;;;;;;1.95;1.58;;;32.90;62.20;;;;;;4988621;28;20774;-63
2023/06/19 07:52:13;;;;;;;4.10;3.30;;;31.80;61.70;;;;;;4984776;28;20210;-64
2023/06/19 07:54:55;;;;;;;4.30;3.25;;;31.50;61.30;;;;;;4987645;28;20209;-63
2023/06/19 07:57:24;;;;;;;3.90;3.20;;;31.20;59.30;;;;;;4987330;28;20190;-63
2023/06/19 07:59:52;;;;;;;3.08;2.63;;;30.20;58.20;;;;;;5000057;28;20198;-63
2023/06/19 08:02:19;;;;;;;2.53;1.98;;;29.30;62.80;;;;;;4977433;28;20241;-63
2023/06/19 08:04:47;;;;;;;1.73;1.60;;;29.10;59.70;;;;;;4985329;28;20621;-63
2023/06/19 08:07:14;;;;;;;1.60;1.48;;;28.50;61.10;;;;;;4981791;28;20194;-63
2023/06/19 08:09:41;;;;;;;2.80;1.65;;;27.50;61.40;;;;;;4987330;28;20748;-63
2023/06/19 08:12:08;;;;;;;2.10;1.40;;;27.40;64.10;;;;;;4982994;28;20202;-63
2023/06/19 08:14:35;;;;;;;6.03;1.60;;;27.40;65.70;;;;;;4986815;28;20205;-63
2023/06/19 08:17:02;;;;;;;3.42;1.40;;;28.10;84.70;;;;;;4987133;28;20194;-63
2023/06/19 08:19:29;;;;;;;1.80;1.48;;;28.30;65.20;;;;;;4985212;28;20250;-63
2023/06/19 08:21:56;;;;;;;2.50;1.52;;;27.70;64.60;;;;;;4982150;28;20784;-63
2023/06/19 08:24:24;;;;;;;2.67;1.70;;;26.60;65.30;;;;;;4988706;28;20212;-64
2023/06/19 08:26:52;;;;;;;1.40;1.30;;;26.50;69.60;;;;;;4986279;28;20293;-64
2023/06/19 08:29:19;;;;;;;1.50;1.40;;;27.30;70.00;;;;;;4985869;28;20669;-64
2023/06/19 08:31:46;;;;;;;2.30;1.40;;;27.20;67.40;;;;;;4983862;28;20202;-64
2023/06/19 08:34:13;;;;;;;1.75;1.30;;;27.00;69.80;;;;;;4987441;28;20716;-64
2023/06/19 08:36:40;;;;;;;4.85;1.63;;;27.30;68.00;;;;;;5000735;28;20879;-65
2023/06/19 08:39:08;;;;;;;3.90;1.95;;;27.80;67.90;;;;;;4985670;28;20197;-64
2023/06/19 08:41:38;;;;;;;6.30;2.30;;;27.30;67.90;;;;;;4984061;28;20218;-63
2023/06/19 08:44:06;;;;;;;2.53;1.90;;;26.80;68.80;;;;;;4987459;28;20680;-65
2023/06/19 08:46:34;;;;;;;4.72;1.70;;;27.50;70.40;;;;;;4988763;28;20201;-63
2023/06/19 08:49:01;;;;;;;2.92;1.73;;;27.50;68.80;;;;;;4986598;28;20201;-64
2023/06/19 08:51:32;;;;;;;2.47;2.25;;;27.50;68.50;;;;;;4985908;28;20703;-62
2023/06/19 08:54:07;;;;;;;4.90;1.70;;;26.70;70.50;;;;;;4991691;28;20260;-63
2023/06/19 08:56:37;;;;;;;1.90;1.80;;;26.60;71.10;;;;;;4976258;28;21392;-63
2023/06/19 08:59:10;;;;;;;1.50;1.33;;;26.00;74.30;;;;;;4982353;28;20616;-65
2023/06/19 09:01:37;;;;;;;2.30;1.60;;;26.10;73.40;;;;;;4981870;28;20309;-64
2023/06/19 09:04:12;;;;;;;1.65;1.40;;;26.30;74.60;;;;;;4981372;28;20197;-64
2023/06/19 09:07:07;;;;;;;6.28;2.28;;;27.40;74.10;;;;;;4985406;28;20197;-64
2023/06/19 09:09:52;;;;;;;1.80;1.50;;;27.90;71.50;;;;;;4997842;28;20227;-64
2023/06/19 09:12:19;;;;;;;7.28;2.00;;;28.70;72.80;;;;;;4977981;28;20201;-64
2023/06/19 09:14:55;;;;;;;1.52;1.42;;;28.50;69.70;;;;;;4981181;28;20295;-65
2023/06/19 09:17:22;;;;;;;2.35;1.55;;;29.10;69.30;;;;;;4983905;28;20193;-64
2023/06/19 09:19:57;;;;;;;1.80;1.52;;;29.50;70.50;;;;;;4980961;28;20328;-64
2023/06/19 09:22:25;;;;;;;1.20;1.10;;;29.00;68.20;;;;;;4980490;28;21009;-64
2023/06/19 09:24:52;;;;;;;1.27;1.17;;;27.70;64.00;;;;;;4985106;28;20198;-64
2023/06/19 09:27:19;;;;;;;1.90;1.38;;;26.80;68.50;;;;;;4982697;28;20209;-64
2023/06/19 09:29:49;;;;;;;1.38;1.27;;;26.30;71.90;;;;;;4981249;28;20203;-64
2023/06/19 09:32:28;;;;;;;4.20;2.05;;;26.20;72.30;;;;;;4984503;28;20692;-64
2023/06/19 09:35:00;;;;;;;4.80;2.55;;;26.50;73.80;;;;;;4981955;28;20221;-64
2023/06/19 09:37:30;;;;;;;4.43;2.10;;;26.20;74.80;;;;;;4983041;28;20547;-72
2023/06/19 09:40:13;;;;;;;2.78;1.90;;;26.20;75.00;;;;;;4981063;28;20194;-73
2023/06/19 09:42:42;;;;;;;2.63;1.85;;;27.20;73.50;;;;;;4997399;28;21127;-73
2023/06/19 09:45:25;;;;;;;3.75;3.33;;;27.90;74.20;;;;;;4982791;28;20293;-73
2023/06/19 09:47:56;;;;;;;2.70;2.20;;;28.60;74.00;;;;;;4983664;28;20206;-73
2023/06/19 09:50:34;;;;;;;3.03;2.22;;;28.90;71.70;;;;;;4998905;28;20902;-71
2023/06/19 09:53:01;;;;;;;4.07;3.47;;;29.40;71.30;;;;;;4980729;28;20198;-72
2023/06/19 09:55:32;;;;;;;2.28;1.63;;;30.20;69.40;;;;;;4993856;28;20209;-73
2023/06/19 09:58:01;;;;;;;5.22;3.67;;;29.30;67.90;;;;;;4981863;28;20293;-73
2023/06/19 10:00:31;;;;;;;2.70;1.80;;;29.80;71.60;;;;;;4983691;28;20972;-74
2023/06/19 10:03:00;;;;;;;4.95;2.85;;;31.50;66.50;;;;;;4980808;28;20225;-73
2023/06/19 10:05:31;;;;;;;4.85;3.13;;;32.50;64.60;;;;;;4980343;28;20212;-74
2023/06/19 10:07:59;;;;;;;4.03;3.63;;;33.90;62.40;;;;;;4977692;28;20571;-73
2023/06/19 10:10:28;;;;;;;3.95;2.88;;;34.50;58.50;;;;;;4980991;28;20268;-72
2023/06/19 10:12:59;;;;;;;4.40;2.83;;;33.20;56.70;;;;;;4983232;28;20197;-74
2023/06/19 10:15:28;;;;;;;2.65;1.80;;;30.90;60.50;;;;;;4987800;28;20610;-71
2023/06/19 10:18:06;;;;;;;2.05;1.85;;;30.40;57.80;;;;;;4987196;28;20206;-73
2023/06/19 10:20:38;;;;;;;2.78;1.70;;;31.70;60.20;;;;;;4979500;28;20210;-73
2023/06/19 10:23:17;;;;;;;3.47;1.60;;;30.20;58.90;;;;;;4978948;28;20711;-73
2023/06/19 10:25:57;;;;;;;3.25;2.13;;;29.30;60.20;;;;;;4984547;28;20293;-72
2023/06/19 10:28:30;;;;;;;2.05;1.60;;;30.10;61.70;;;;;;5002158;28;20200;-73
2023/06/19 10:31:03;;;;;;;2.47;1.98;;;29.50;63.50;;;;;;4983240;28;20193;-73
2023/06/19 10:33:33;;;;;;;2.95;1.50;;;28.80;66.00;;;;;;4985045;28;20313;-73
2023/06/19 10:36:12;;;;;;;7.20;2.80;;;28.60;65.60;;;;;;4985603;28;20198;-71
2023/06/19 10:38:43;;;;;;;7.38;5.07;;;28.60;65.30;;;;;;4985082;28;20217;-71
2023/06/19 10:41:17;;;;;;;5.00;3.65;;;28.70;65.30;;;;;;4981824;28;20374;-71
2023/06/19 10:43:55;;;;;;;4.38;3.50;;;28.20;66.20;;;;;;4983972;28;20219;-71
2023/06/19 10:46:24;;;;;;;3.13;2.42;;;29.20;66.40;;;;;;4982157;28;20197;-71
2023/06/19 10:48:51;;;;;;;3.10;2.53;;;28.80;67.40;;;;;;4982652;28;20190;-71
2023/06/19 10:51:21;;;;;;;3.85;1.45;;;30.00;64.80;;;;;;4984894;28;20253;-73
2023/06/19 10:53:49;;;;;;;1.77;1.60;;;31.30;61.70;;;;;;4984660;28;20202;-73
2023/06/19 10:56:20;;;;;;;1.80;1.48;;;32.80;59.00;;;;;;4984806;28;20205;-71
2023/06/19 10:58:47;;;;;;;1.40;1.13;;;33.90;57.90;;;;;;4982140;28;21109;-73
2023/06/19 11:01:14;;;;;;;1.88;1.00;;;31.50;53.70;;;;;;4986126;28;20276;-73
2023/06/19 11:03:41;;;;;;;1.40;1.23;;;30.60;56.00;;;;;;4986001;28;20248;-73
2023/06/19 11:06:08;;;;;;;1.38;1.25;;;32.10;56.90;;;;;;4982538;28;20193;-73
2023/06/19 11:08:35;;;;;;;2.17;1.58;;;33.60;54.30;;;;;;4986193;28;20637;-72
2023/06/19 11:11:03;;;;;;;1.25;1.15;;;34.00;54.20;;;;;;4982749;28;21104;-73
2023/06/19 11:13:30;;;;;;;1.42;1.20;;;33.70;54.30;;;;;;4986034;28;20264;-73
2023/06/19 11:15:58;;;;;;;2.80;1.20;;;33.60;53.80;;;;;;4980271;28;20201;-73
2023/06/19 11:18:25;;;;;;;2.00;1.50;;;33.30;53.40;;;;;;4984188;28;20232;-74
2023/06/19 11:20:53;;;;;;;2.63;1.17;;;33.90;53.30;;;;;;4968082;28;20202;-73
2023/06/19 11:23:29;;;;;;;3.03;1.60;;;34.40;51.60;;;;;;5000093;28;20953;-73
2023/06/19 11:26:06;;;;;;;1.65;1.10;;;32.90;46.20;;;;;;4982990;28;20198;-73
2023/06/19 11:28:33;;;;;;;1.80;1.35;;;32.60;52.80;;;;;;4985646;28;20277;-73
2023/06/19 11:31:02;;;;;;;4.03;1.38;;;32.80;53.00;;;;;;4986548;28;20970;-73
2023/06/19 11:33:30;;;;;;;3.10;1.67;;;32.90;52.50;;;;;;4966148;28;20194;-73
2023/06/19 11:36:00;;;;;;;1.95;1.50;;;32.50;48.90;;;;;;4983141;28;20209;-73
2023/06/19 11:38:27;;;;;;;3.65;1.40;;;32.50;50.30;;;;;;4982755;28;20202;-73
2023/06/19 11:40:56;;;;;;;3.47;1.90;;;31.10;52.20;;;;;;4982421;28;20194;-64
2023/06/19 11:43:41;;;;;;;1.70;1.60;;;30.50;49.60;;;;;;4985660;28;20209;-64
2023/06/19 11:46:09;;;;;;;2.97;1.67;;;31.10;51.10;;;;;;4979644;28;20206;-64
2023/06/19 11:48:37;;;;;;;3.20;1.80;;;30.30;51.50;;;;;;4983035;28;20189;-66
2023/06/19 11:51:05;;;;;;;4.28;1.95;;;30.40;53.00;;;;;;4966681;28;20201;-64
2023/06/19 11:53:34;;;;;;;2.25;1.48;;;31.50;52.90;;;;;;4970364;28;20662;-61
2023/06/19 11:56:01;;;;;;;2.35;1.92;;;31.80;53.40;;;;;;4979622;28;20760;-71
2023/06/19 11:58:28;;;;;;;3.13;1.80;;;32.60;50.40;;;;;;4968142;28;23285;-71
2023/06/19 12:00:56;;;;;;;2.67;1.83;;;33.10;50.60;;;;;;4983380;28;20209;-72
2023/06/19 12:03:23;;;;;;;2.72;2.08;;;32.50;50.70;;;;;;4982738;28;20705;-72
2023/06/19 12:05:51;;;;;;;2.03;1.75;;;32.70;51.90;;;;;;4974431;28;21871;-72
2023/06/19 12:08:18;;;;;;;5.82;1.63;;;32.40;50.10;;;;;;4980071;28;20296;-70
2023/06/19 12:10:46;;;;;;;2.25;1.70;;;31.20;48.30;;;;;;4986544;28;20201;-71
2023/06/19 12:13:13;;;;;;;2.85;1.75;;;32.10;50.60;;;;;;4985213;28;20201;-71
2023/06/19 12:15:40;;;;;;;2.30;2.10;;;30.90;47.90;;;;;;4987033;28;20745;-71
2023/06/19 12:18:10;;;;;;;4.50;2.17;;;32.10;48.90;;;;;;4985574;28;20201;-72
2023/06/19 12:20:38;;;;;;;2.75;1.85;;;32.20;49.70;;;;;;4983885;28;20198;-69
2023/06/19 12:23:05;;;;;;;1.90;1.70;;;31.00;49.50;;;;;;4988649;28;20197;-71
2023/06/19 12:25:32;;;;;;;5.15;2.17;;;29.50;49.40;;;;;;4983042;28;20627;-71
2023/06/19 12:28:00;;;;;;;4.15;2.63;;;29.30;52.20;;;;;;4987074;28;20200;-70
2023/06/19 12:30:27;;;;;;;2.75;2.17;;;29.90;51.40;;;;;;4986175;28;20445;-70
2023/06/19 12:32:55;;;;;;;2.28;1.80;;;30.70;75.90;;;;;;4985818;28;20198;-70
2023/06/19 12:35:23;;;;;;;2.55;1.85;;;30.60;51.10;;;;;;4984793;28;20206;-70
2023/06/19 12:37:50;;;;;;;3.45;1.90;;;30.70;51.60;;;;;;4981953;28;20567;-71
2023/06/19 12:40:17;;;;;;;2.95;2.05;;;31.50;53.80;;;;;;4983809;28;20716;-70
2023/06/19 12:42:44;;;;;;;2.53;2.05;;;32.10;49.80;;;;;;4974542;28;20225;-72
2023/06/19 12:45:12;;;;;;;2.35;1.88;;;32.60;49.70;;;;;;4982240;28;20209;-71
2023/06/19 12:47:40;;;;;;;5.45;3.35;;;32.70;48.60;;;;;;4983358;28;20265;-71
2023/06/19 12:50:08;;;;;;;2.63;1.98;;;32.50;48.60;;;;;;4985571;28;20716;-72
2023/06/19 12:52:35;;;;;;;3.83;1.75;;;32.10;49.40;;;;;;4982888;28;20672;-71
2023/06/19 12:55:03;;;;;;;5.65;3.20;;;31.80;49.20;;;;;;4983134;28;20209;-70